sensor_id;sensor_type;location;lat;lon;timestamp;P1;durP1;ratioP1;P2;durP2;ratioP2
28519;SDS011;15732;48.534;20.382;2022-08-18T00:04:50;9.90;;;4.22;;
28519;SDS011;15732;48.534;20.382;2022-08-18T00:07:20;9.93;;;3.88;;
28519;SDS011;15732;48.534;20.382;2022-08-18T00:09:52;13.00;;;5.18;;
28519;SDS011;15732;48.534;20.382;2022-08-18T00:12:24;9.57;;;3.78;;
28519;SDS011;15732;48.534;20.382;2022-08-18T00:14:51;9.27;;;3.30;;
28519;SDS011;15732;48.534;20.382;2022-08-18T00:17:20;11.40;;;4.55;;
28519;SDS011;15732;48.534;20.382;2022-08-18T00:19:47;11.13;;;4.80;;
28519;SDS011;15732;48.534;20.382;2022-08-18T00:22:16;11.90;;;5.30;;
28519;SDS011;15732;48.534;20.382;2022-08-18T00:24:45;7.78;;;4.13;;
28519;SDS011;15732;48.534;20.382;2022-08-18T00:27:13;7.68;;;3.60;;
28519;SDS011;15732;48.534;20.382;2022-08-18T00:29:47;8.60;;;4.25;;
28519;SDS011;15732;48.534;20.382;2022-08-18T00:32:14;7.97;;;3.78;;
28519;SDS011;15732;48.534;20.382;2022-08-18T00:34:45;8.02;;;3.78;;
28519;SDS011;15732;48.534;20.382;2022-08-18T00:37:12;27.07;;;5.50;;
28519;SDS011;15732;48.534;20.382;2022-08-18T00:39:40;9.50;;;4.15;;
28519;SDS011;15732;48.534;20.382;2022-08-18T00:42:15;9.38;;;5.15;;
28519;SDS011;15732;48.534;20.382;2022-08-18T00:45:00;10.77;;;4.53;;
28519;SDS011;15732;48.534;20.382;2022-08-18T00:47:29;8.57;;;3.97;;
28519;SDS011;15732;48.534;20.382;2022-08-18T00:49:57;11.90;;;5.35;;
28519;SDS011;15732;48.534;20.382;2022-08-18T00:52:24;16.23;;;3.95;;
28519;SDS011;15732;48.534;20.382;2022-08-18T00:54:52;9.18;;;4.85;;
28519;SDS011;15732;48.534;20.382;2022-08-18T00:57:24;9.45;;;3.67;;
28519;SDS011;15732;48.534;20.382;2022-08-18T01:00:03;8.55;;;3.58;;
28519;SDS011;15732;48.534;20.382;2022-08-18T01:02:47;8.10;;;4.05;;
28519;SDS011;15732;48.534;20.382;2022-08-18T01:05:37;9.27;;;4.00;;
28519;SDS011;15732;48.534;20.382;2022-08-18T01:08:08;7.68;;;4.18;;
28519;SDS011;15732;48.534;20.382;2022-08-18T01:10:58;7.80;;;3.83;;
28519;SDS011;15732;48.534;20.382;2022-08-18T01:13:28;7.20;;;4.22;;
28519;SDS011;15732;48.534;20.382;2022-08-18T01:15:58;6.93;;;3.90;;
28519;SDS011;15732;48.534;20.382;2022-08-18T01:18:45;9.20;;;4.55;;
28519;SDS011;15732;48.534;20.382;2022-08-18T01:21:42;6.32;;;3.50;;
28519;SDS011;15732;48.534;20.382;2022-08-18T01:24:17;8.35;;;4.85;;
28519;SDS011;15732;48.534;20.382;2022-08-18T01:27:11;7.47;;;3.78;;
28519;SDS011;15732;48.534;20.382;2022-08-18T01:29:43;10.60;;;4.38;;
28519;SDS011;15732;48.534;20.382;2022-08-18T01:32:13;9.55;;;4.68;;
28519;SDS011;15732;48.534;20.382;2022-08-18T01:34:45;9.43;;;4.47;;
28519;SDS011;15732;48.534;20.382;2022-08-18T01:37:17;10.68;;;3.83;;
28519;SDS011;15732;48.534;20.382;2022-08-18T01:39:45;18.80;;;4.28;;
28519;SDS011;15732;48.534;20.382;2022-08-18T01:42:14;10.98;;;4.13;;
28519;SDS011;15732;48.534;20.382;2022-08-18T01:44:42;6.75;;;3.75;;
28519;SDS011;15732;48.534;20.382;2022-08-18T01:47:11;9.57;;;4.57;;
28519;SDS011;15732;48.534;20.382;2022-08-18T01:49:38;9.07;;;4.28;;
28519;SDS011;15732;48.534;20.382;2022-08-18T01:52:10;7.57;;;4.13;;
28519;SDS011;15732;48.534;20.382;2022-08-18T01:54:44;9.45;;;4.18;;
28519;SDS011;15732;48.534;20.382;2022-08-18T01:57:17;6.82;;;3.83;;
28519;SDS011;15732;48.534;20.382;2022-08-18T01:59:45;19.52;;;4.22;;
28519;SDS011;15732;48.534;20.382;2022-08-18T02:02:14;8.48;;;4.40;;
28519;SDS011;15732;48.534;20.382;2022-08-18T02:04:45;10.02;;;4.65;;
28519;SDS011;15732;48.534;20.382;2022-08-18T02:07:13;10.85;;;4.57;;
28519;SDS011;15732;48.534;20.382;2022-08-18T02:09:40;9.50;;;3.63;;
28519;SDS011;15732;48.534;20.382;2022-08-18T02:12:08;15.40;;;3.42;;
28519;SDS011;15732;48.534;20.382;2022-08-18T02:14:36;6.40;;;2.70;;
28519;SDS011;15732;48.534;20.382;2022-08-18T02:17:04;6.03;;;2.97;;
28519;SDS011;15732;48.534;20.382;2022-08-18T02:19:36;15.40;;;3.88;;
28519;SDS011;15732;48.534;20.382;2022-08-18T02:22:20;10.50;;;4.10;;
28519;SDS011;15732;48.534;20.382;2022-08-18T02:24:52;7.90;;;3.78;;
28519;SDS011;15732;48.534;20.382;2022-08-18T02:27:21;8.07;;;3.00;;
28519;SDS011;15732;48.534;20.382;2022-08-18T02:29:48;9.00;;;3.87;;
28519;SDS011;15732;48.534;20.382;2022-08-18T02:32:20;15.60;;;4.43;;
28519;SDS011;15732;48.534;20.382;2022-08-18T02:34:47;11.10;;;3.63;;
28519;SDS011;15732;48.534;20.382;2022-08-18T02:37:15;13.90;;;4.87;;
28519;SDS011;15732;48.534;20.382;2022-08-18T02:39:42;6.77;;;3.27;;
28519;SDS011;15732;48.534;20.382;2022-08-18T02:42:10;9.10;;;4.20;;
28519;SDS011;15732;48.534;20.382;2022-08-18T02:44:39;12.68;;;3.80;;
28519;SDS011;15732;48.534;20.382;2022-08-18T02:47:07;6.40;;;2.83;;
28519;SDS011;15732;48.534;20.382;2022-08-18T02:49:34;13.55;;;4.50;;
28519;SDS011;15732;48.534;20.382;2022-08-18T02:52:02;11.07;;;3.55;;
28519;SDS011;15732;48.534;20.382;2022-08-18T02:54:30;12.20;;;3.75;;
28519;SDS011;15732;48.534;20.382;2022-08-18T02:56:57;6.50;;;4.10;;
28519;SDS011;15732;48.534;20.382;2022-08-18T02:59:25;10.83;;;4.37;;
28519;SDS011;15732;48.534;20.382;2022-08-18T03:01:54;8.13;;;4.25;;
28519;SDS011;15732;48.534;20.382;2022-08-18T03:04:25;6.78;;;3.67;;
28519;SDS011;15732;48.534;20.382;2022-08-18T03:06:53;9.98;;;4.65;;
28519;SDS011;15732;48.534;20.382;2022-08-18T03:09:25;8.43;;;3.95;;
28519;SDS011;15732;48.534;20.382;2022-08-18T03:11:52;9.07;;;3.93;;
28519;SDS011;15732;48.534;20.382;2022-08-18T03:14:23;6.80;;;3.92;;
28519;SDS011;15732;48.534;20.382;2022-08-18T03:16:54;8.32;;;4.22;;
28519;SDS011;15732;48.534;20.382;2022-08-18T03:19:22;11.03;;;4.73;;
28519;SDS011;15732;48.534;20.382;2022-08-18T03:22:10;14.50;;;3.90;;
28519;SDS011;15732;48.534;20.382;2022-08-18T03:24:39;9.95;;;4.22;;
28519;SDS011;15732;48.534;20.382;2022-08-18T03:27:10;8.68;;;4.47;;
28519;SDS011;15732;48.534;20.382;2022-08-18T03:29:38;7.27;;;3.50;;
28519;SDS011;15732;48.534;20.382;2022-08-18T03:32:05;8.70;;;4.23;;
28519;SDS011;15732;48.534;20.382;2022-08-18T03:34:37;7.18;;;3.75;;
28519;SDS011;15732;48.534;20.382;2022-08-18T03:37:05;9.27;;;3.80;;
28519;SDS011;15732;48.534;20.382;2022-08-18T03:39:32;12.53;;;4.13;;
28519;SDS011;15732;48.534;20.382;2022-08-18T03:42:00;27.77;;;4.83;;
28519;SDS011;15732;48.534;20.382;2022-08-18T03:44:29;8.05;;;3.78;;
28519;SDS011;15732;48.534;20.382;2022-08-18T03:46:57;6.22;;;2.95;;
28519;SDS011;15732;48.534;20.382;2022-08-18T03:49:27;10.55;;;3.72;;
28519;SDS011;15732;48.534;20.382;2022-08-18T03:51:55;6.70;;;3.47;;
28519;SDS011;15732;48.534;20.382;2022-08-18T03:54:28;8.52;;;4.28;;
28519;SDS011;15732;48.534;20.382;2022-08-18T03:56:56;11.25;;;3.83;;
28519;SDS011;15732;48.534;20.382;2022-08-18T03:59:25;7.78;;;3.72;;
28519;SDS011;15732;48.534;20.382;2022-08-18T04:01:58;8.75;;;4.25;;
28519;SDS011;15732;48.534;20.382;2022-08-18T04:04:27;9.52;;;3.92;;
28519;SDS011;15732;48.534;20.382;2022-08-18T04:06:59;6.85;;;4.10;;
28519;SDS011;15732;48.534;20.382;2022-08-18T04:09:30;7.60;;;3.92;;
28519;SDS011;15732;48.534;20.382;2022-08-18T04:12:04;9.35;;;4.13;;
28519;SDS011;15732;48.534;20.382;2022-08-18T04:14:37;11.15;;;4.63;;
28519;SDS011;15732;48.534;20.382;2022-08-18T04:17:09;8.13;;;3.58;;
28519;SDS011;15732;48.534;20.382;2022-08-18T04:19:37;15.57;;;4.73;;
28519;SDS011;15732;48.534;20.382;2022-08-18T04:22:04;11.57;;;5.07;;
28519;SDS011;15732;48.534;20.382;2022-08-18T04:24:32;7.73;;;3.67;;
28519;SDS011;15732;48.534;20.382;2022-08-18T04:27:03;11.00;;;4.32;;
28519;SDS011;15732;48.534;20.382;2022-08-18T04:29:31;12.73;;;4.50;;
28519;SDS011;15732;48.534;20.382;2022-08-18T04:32:02;10.45;;;3.85;;
28519;SDS011;15732;48.534;20.382;2022-08-18T04:34:29;7.82;;;3.83;;
28519;SDS011;15732;48.534;20.382;2022-08-18T04:39:29;8.82;;;3.78;;
28519;SDS011;15732;48.534;20.382;2022-08-18T04:41:57;8.13;;;3.55;;
28519;SDS011;15732;48.534;20.382;2022-08-18T04:44:24;8.68;;;4.38;;
28519;SDS011;15732;48.534;20.382;2022-08-18T04:46:55;11.38;;;4.38;;
28519;SDS011;15732;48.534;20.382;2022-08-18T04:49:24;13.27;;;4.47;;
28519;SDS011;15732;48.534;20.382;2022-08-18T04:51:51;6.97;;;3.58;;
28519;SDS011;15732;48.534;20.382;2022-08-18T04:54:38;8.45;;;4.30;;
28519;SDS011;15732;48.534;20.382;2022-08-18T04:57:14;24.05;;;5.38;;
28519;SDS011;15732;48.534;20.382;2022-08-18T04:59:50;11.68;;;3.92;;
28519;SDS011;15732;48.534;20.382;2022-08-18T05:02:19;8.40;;;3.92;;
28519;SDS011;15732;48.534;20.382;2022-08-18T05:04:47;5.90;;;2.90;;
28519;SDS011;15732;48.534;20.382;2022-08-18T05:07:16;8.00;;;4.03;;
28519;SDS011;15732;48.534;20.382;2022-08-18T05:09:45;6.65;;;3.13;;
28519;SDS011;15732;48.534;20.382;2022-08-18T05:12:13;9.38;;;4.28;;
28519;SDS011;15732;48.534;20.382;2022-08-18T05:14:42;14.93;;;4.80;;
28519;SDS011;15732;48.534;20.382;2022-08-18T05:17:10;8.10;;;3.78;;
28519;SDS011;15732;48.534;20.382;2022-08-18T05:19:38;9.35;;;4.28;;
28519;SDS011;15732;48.534;20.382;2022-08-18T05:22:09;9.95;;;4.55;;
28519;SDS011;15732;48.534;20.382;2022-08-18T05:24:36;7.93;;;4.05;;
28519;SDS011;15732;48.534;20.382;2022-08-18T05:29:32;7.70;;;3.67;;
28519;SDS011;15732;48.534;20.382;2022-08-18T05:32:01;7.70;;;3.67;;
28519;SDS011;15732;48.534;20.382;2022-08-18T05:34:33;9.68;;;4.63;;
28519;SDS011;15732;48.534;20.382;2022-08-18T05:39:46;7.32;;;3.90;;
28519;SDS011;15732;48.534;20.382;2022-08-18T05:42:25;7.80;;;4.10;;
28519;SDS011;15732;48.534;20.382;2022-08-18T05:44:55;7.57;;;3.08;;
28519;SDS011;15732;48.534;20.382;2022-08-18T05:47:29;13.07;;;3.30;;
28519;SDS011;15732;48.534;20.382;2022-08-18T05:50:02;9.60;;;3.95;;
28519;SDS011;15732;48.534;20.382;2022-08-18T05:52:53;8.73;;;4.05;;
28519;SDS011;15732;48.534;20.382;2022-08-18T05:55:27;21.25;;;3.75;;
28519;SDS011;15732;48.534;20.382;2022-08-18T05:58:34;10.68;;;3.47;;
28519;SDS011;15732;48.534;20.382;2022-08-18T06:01:13;9.73;;;3.75;;
28519;SDS011;15732;48.534;20.382;2022-08-18T06:06:51;13.32;;;3.65;;
28519;SDS011;15732;48.534;20.382;2022-08-18T06:09:27;5.90;;;3.45;;
28519;SDS011;15732;48.534;20.382;2022-08-18T06:12:08;6.18;;;3.25;;
28519;SDS011;15732;48.534;20.382;2022-08-18T06:14:44;8.05;;;3.90;;
28519;SDS011;15732;48.534;20.382;2022-08-18T06:17:49;20.05;;;4.28;;
28519;SDS011;15732;48.534;20.382;2022-08-18T06:20:44;5.90;;;3.40;;
28519;SDS011;15732;48.534;20.382;2022-08-18T06:28:45;11.73;;;4.63;;
28519;SDS011;15732;48.534;20.382;2022-08-18T06:34:06;9.73;;;4.28;;
28519;SDS011;15732;48.534;20.382;2022-08-18T06:42:20;8.40;;;2.95;;
28519;SDS011;15732;48.534;20.382;2022-08-18T06:45:05;7.32;;;3.78;;
28519;SDS011;15732;48.534;20.382;2022-08-18T06:47:56;8.38;;;4.35;;
28519;SDS011;15732;48.534;20.382;2022-08-18T06:50:40;8.75;;;3.30;;
28519;SDS011;15732;48.534;20.382;2022-08-18T06:53:17;7.53;;;3.67;;
28519;SDS011;15732;48.534;20.382;2022-08-18T06:55:47;7.20;;;3.58;;
28519;SDS011;15732;48.534;20.382;2022-08-18T07:00:53;8.35;;;3.35;;
28519;SDS011;15732;48.534;20.382;2022-08-18T07:03:38;8.10;;;3.22;;
28519;SDS011;15732;48.534;20.382;2022-08-18T07:06:10;7.43;;;3.47;;
28519;SDS011;15732;48.534;20.382;2022-08-18T07:08:37;8.32;;;3.92;;
28519;SDS011;15732;48.534;20.382;2022-08-18T07:13:48;7.38;;;3.67;;
28519;SDS011;15732;48.534;20.382;2022-08-18T07:16:30;12.52;;;4.82;;
28519;SDS011;15732;48.534;20.382;2022-08-18T07:19:06;10.75;;;4.45;;
28519;SDS011;15732;48.534;20.382;2022-08-18T07:24:12;8.13;;;3.50;;
28519;SDS011;15732;48.534;20.382;2022-08-18T07:29:34;13.25;;;3.45;;
28519;SDS011;15732;48.534;20.382;2022-08-18T07:32:14;10.05;;;3.70;;
28519;SDS011;15732;48.534;20.382;2022-08-18T07:34:47;5.80;;;3.08;;
28519;SDS011;15732;48.534;20.382;2022-08-18T07:37:20;10.75;;;3.55;;
28519;SDS011;15732;48.534;20.382;2022-08-18T07:40:03;6.82;;;3.50;;
28519;SDS011;15732;48.534;20.382;2022-08-18T07:56:18;10.60;;;3.67;;
28519;SDS011;15732;48.534;20.382;2022-08-18T07:59:08;5.35;;;2.85;;
28519;SDS011;15732;48.534;20.382;2022-08-18T08:04:38;10.55;;;3.83;;
28519;SDS011;15732;48.534;20.382;2022-08-18T08:07:26;5.68;;;2.65;;
28519;SDS011;15732;48.534;20.382;2022-08-18T08:12:42;7.47;;;2.75;;
28519;SDS011;15732;48.534;20.382;2022-08-18T08:15:15;10.57;;;2.92;;
28519;SDS011;15732;48.534;20.382;2022-08-18T08:20:45;6.47;;;3.35;;
28519;SDS011;15732;48.534;20.382;2022-08-18T08:31:09;5.50;;;2.08;;
28519;SDS011;15732;48.534;20.382;2022-08-18T08:37:00;5.93;;;2.42;;
28519;SDS011;15732;48.534;20.382;2022-08-18T08:39:33;17.77;;;2.78;;
28519;SDS011;15732;48.534;20.382;2022-08-18T08:42:09;4.78;;;2.30;;
28519;SDS011;15732;48.534;20.382;2022-08-18T08:48:02;10.30;;;2.92;;
28519;SDS011;15732;48.534;20.382;2022-08-18T08:50:42;5.95;;;2.67;;
28519;SDS011;15732;48.534;20.382;2022-08-18T08:53:16;5.82;;;2.30;;
28519;SDS011;15732;48.534;20.382;2022-08-18T08:56:01;9.15;;;2.92;;
28519;SDS011;15732;48.534;20.382;2022-08-18T09:01:07;4.20;;;2.30;;
28519;SDS011;15732;48.534;20.382;2022-08-18T09:03:48;5.65;;;2.25;;
28519;SDS011;15732;48.534;20.382;2022-08-18T09:23:21;4.75;;;2.33;;
28519;SDS011;15732;48.534;20.382;2022-08-18T09:30:03;6.03;;;2.67;;
28519;SDS011;15732;48.534;20.382;2022-08-18T09:39:56;6.57;;;2.80;;
28519;SDS011;15732;48.534;20.382;2022-08-18T09:42:55;5.95;;;3.33;;
28519;SDS011;15732;48.534;20.382;2022-08-18T09:45:51;7.85;;;2.83;;
28519;SDS011;15732;48.534;20.382;2022-08-18T09:48:22;11.85;;;2.90;;
28519;SDS011;15732;48.534;20.382;2022-08-18T09:50:52;7.90;;;2.95;;
28519;SDS011;15732;48.534;20.382;2022-08-18T09:53:37;8.32;;;2.78;;
28519;SDS011;15732;48.534;20.382;2022-08-18T10:04:32;6.22;;;2.75;;
28519;SDS011;15732;48.534;20.382;2022-08-18T10:07:26;6.00;;;2.95;;
28519;SDS011;15732;48.534;20.382;2022-08-18T10:10:10;14.65;;;4.50;;
28519;SDS011;15732;48.534;20.382;2022-08-18T10:12:47;6.60;;;2.70;;
28519;SDS011;15732;48.534;20.382;2022-08-18T10:21:16;7.30;;;2.67;;
28519;SDS011;15732;48.534;20.382;2022-08-18T10:28:56;6.88;;;2.78;;
28519;SDS011;15732;48.534;20.382;2022-08-18T10:31:25;10.30;;;2.78;;
28519;SDS011;15732;48.534;20.382;2022-08-18T10:36:36;7.32;;;3.70;;
28519;SDS011;15732;48.534;20.382;2022-08-18T10:39:17;5.43;;;2.40;;
28519;SDS011;15732;48.534;20.382;2022-08-18T10:41:55;7.38;;;2.65;;
28519;SDS011;15732;48.534;20.382;2022-08-18T10:44:29;5.80;;;2.90;;
28519;SDS011;15732;48.534;20.382;2022-08-18T10:46:59;18.27;;;2.83;;
28519;SDS011;15732;48.534;20.382;2022-08-18T10:49:29;5.20;;;2.47;;
28519;SDS011;15732;48.534;20.382;2022-08-18T10:52:05;6.38;;;2.70;;
28519;SDS011;15732;48.534;20.382;2022-08-18T10:54:38;7.38;;;2.60;;
28519;SDS011;15732;48.534;20.382;2022-08-18T11:00:19;4.35;;;2.25;;
28519;SDS011;15732;48.534;20.382;2022-08-18T11:05:21;8.52;;;2.60;;
28519;SDS011;15732;48.534;20.382;2022-08-18T11:07:56;7.75;;;2.90;;
28519;SDS011;15732;48.534;20.382;2022-08-18T11:10:36;5.05;;;2.38;;
28519;SDS011;15732;48.534;20.382;2022-08-18T11:13:31;6.57;;;2.65;;
28519;SDS011;15732;48.534;20.382;2022-08-18T11:18:46;6.18;;;2.65;;
28519;SDS011;15732;48.534;20.382;2022-08-18T11:24:13;7.93;;;2.93;;
28519;SDS011;15732;48.534;20.382;2022-08-18T11:29:18;4.85;;;2.20;;
28519;SDS011;15732;48.534;20.382;2022-08-18T11:31:53;5.20;;;2.30;;
28519;SDS011;15732;48.534;20.382;2022-08-18T11:34:34;6.40;;;2.45;;
28519;SDS011;15732;48.534;20.382;2022-08-18T11:37:29;6.40;;;2.70;;
28519;SDS011;15732;48.534;20.382;2022-08-18T11:39:59;6.60;;;3.08;;
28519;SDS011;15732;48.534;20.382;2022-08-18T11:42:29;5.47;;;2.60;;
28519;SDS011;15732;48.534;20.382;2022-08-18T11:45:23;4.45;;;2.28;;
28519;SDS011;15732;48.534;20.382;2022-08-18T11:48:00;5.30;;;2.58;;
28519;SDS011;15732;48.534;20.382;2022-08-18T11:56:16;3.65;;;1.77;;
28519;SDS011;15732;48.534;20.382;2022-08-18T11:59:04;4.95;;;2.50;;
28519;SDS011;15732;48.534;20.382;2022-08-18T12:01:47;4.82;;;2.58;;
28519;SDS011;15732;48.534;20.382;2022-08-18T12:04:28;4.93;;;2.35;;
28519;SDS011;15732;48.534;20.382;2022-08-18T12:06:57;12.18;;;2.63;;
28519;SDS011;15732;48.534;20.382;2022-08-18T12:12:21;5.05;;;2.10;;
28519;SDS011;15732;48.534;20.382;2022-08-18T12:15:03;5.50;;;2.58;;
28519;SDS011;15732;48.534;20.382;2022-08-18T12:17:36;7.85;;;3.03;;
28519;SDS011;15732;48.534;20.382;2022-08-18T12:20:04;7.15;;;2.38;;
28519;SDS011;15732;48.534;20.382;2022-08-18T12:22:34;4.05;;;2.10;;
28519;SDS011;15732;48.534;20.382;2022-08-18T12:25:04;6.13;;;1.85;;
28519;SDS011;15732;48.534;20.382;2022-08-18T12:27:35;6.22;;;2.47;;
28519;SDS011;15732;48.534;20.382;2022-08-18T12:30:04;8.90;;;2.15;;
28519;SDS011;15732;48.534;20.382;2022-08-18T12:32:32;5.25;;;2.40;;
28519;SDS011;15732;48.534;20.382;2022-08-18T12:35:05;7.25;;;2.45;;
28519;SDS011;15732;48.534;20.382;2022-08-18T12:37:42;6.60;;;2.50;;
28519;SDS011;15732;48.534;20.382;2022-08-18T12:40:10;5.35;;;2.25;;
28519;SDS011;15732;48.534;20.382;2022-08-18T12:42:38;5.40;;;2.60;;
28519;SDS011;15732;48.534;20.382;2022-08-18T12:45:05;4.15;;;2.30;;
28519;SDS011;15732;48.534;20.382;2022-08-18T12:47:32;5.72;;;2.70;;
28519;SDS011;15732;48.534;20.382;2022-08-18T12:50:05;4.32;;;1.88;;
28519;SDS011;15732;48.534;20.382;2022-08-18T12:52:33;5.50;;;2.17;;
28519;SDS011;15732;48.534;20.382;2022-08-18T12:55:00;5.07;;;2.27;;
28519;SDS011;15732;48.534;20.382;2022-08-18T12:59:55;4.82;;;2.50;;
28519;SDS011;15732;48.534;20.382;2022-08-18T13:02:23;5.88;;;2.65;;
28519;SDS011;15732;48.534;20.382;2022-08-18T13:04:50;6.07;;;2.22;;
28519;SDS011;15732;48.534;20.382;2022-08-18T13:07:22;5.85;;;2.13;;
28519;SDS011;15732;48.534;20.382;2022-08-18T13:09:49;5.30;;;2.20;;
28519;SDS011;15732;48.534;20.382;2022-08-18T13:12:21;4.45;;;2.28;;
28519;SDS011;15732;48.534;20.382;2022-08-18T13:14:50;11.45;;;2.53;;
28519;SDS011;15732;48.534;20.382;2022-08-18T13:17:19;11.77;;;2.38;;
28519;SDS011;15732;48.534;20.382;2022-08-18T13:22:14;4.27;;;2.20;;
28519;SDS011;15732;48.534;20.382;2022-08-18T13:24:46;4.70;;;2.42;;
28519;SDS011;15732;48.534;20.382;2022-08-18T13:27:13;5.22;;;2.08;;
28519;SDS011;15732;48.534;20.382;2022-08-18T13:29:44;4.50;;;2.22;;
28519;SDS011;15732;48.534;20.382;2022-08-18T13:32:11;5.65;;;1.85;;
28519;SDS011;15732;48.534;20.382;2022-08-18T13:34:40;5.22;;;1.90;;
28519;SDS011;15732;48.534;20.382;2022-08-18T13:37:08;5.25;;;2.22;;
28519;SDS011;15732;48.534;20.382;2022-08-18T13:39:36;5.57;;;2.17;;
28519;SDS011;15732;48.534;20.382;2022-08-18T13:42:03;5.15;;;2.05;;
28519;SDS011;15732;48.534;20.382;2022-08-18T13:44:31;6.68;;;2.38;;
28519;SDS011;15732;48.534;20.382;2022-08-18T13:46:59;4.68;;;2.00;;
28519;SDS011;15732;48.534;20.382;2022-08-18T13:49:30;3.15;;;1.55;;
28519;SDS011;15732;48.534;20.382;2022-08-18T13:51:58;6.47;;;2.55;;
28519;SDS011;15732;48.534;20.382;2022-08-18T13:54:26;6.40;;;2.88;;
28519;SDS011;15732;48.534;20.382;2022-08-18T13:56:57;5.00;;;2.00;;
28519;SDS011;15732;48.534;20.382;2022-08-18T13:59:30;9.77;;;2.40;;
28519;SDS011;15732;48.534;20.382;2022-08-18T14:01:59;4.75;;;2.13;;
28519;SDS011;15732;48.534;20.382;2022-08-18T14:04:27;4.97;;;2.30;;
28519;SDS011;15732;48.534;20.382;2022-08-18T14:06:59;7.03;;;2.40;;
28519;SDS011;15732;48.534;20.382;2022-08-18T14:09:27;11.70;;;2.45;;
28519;SDS011;15732;48.534;20.382;2022-08-18T14:11:58;5.95;;;2.67;;
28519;SDS011;15732;48.534;20.382;2022-08-18T14:14:26;5.75;;;2.60;;
28519;SDS011;15732;48.534;20.382;2022-08-18T14:16:53;4.28;;;2.20;;
28519;SDS011;15732;48.534;20.382;2022-08-18T14:19:21;4.80;;;2.53;;
28519;SDS011;15732;48.534;20.382;2022-08-18T14:22:07;4.55;;;1.80;;
28519;SDS011;15732;48.534;20.382;2022-08-18T14:24:52;4.43;;;1.88;;
28519;SDS011;15732;48.534;20.382;2022-08-18T14:27:38;6.72;;;2.35;;
28519;SDS011;15732;48.534;20.382;2022-08-18T14:30:07;5.75;;;1.63;;
28519;SDS011;15732;48.534;20.382;2022-08-18T14:32:36;13.55;;;2.78;;
28519;SDS011;15732;48.534;20.382;2022-08-18T14:35:05;5.30;;;2.20;;
28519;SDS011;15732;48.534;20.382;2022-08-18T14:37:33;18.58;;;2.67;;
28519;SDS011;15732;48.534;20.382;2022-08-18T14:40:01;4.45;;;1.95;;
28519;SDS011;15732;48.534;20.382;2022-08-18T14:42:29;4.03;;;2.28;;
28519;SDS011;15732;48.534;20.382;2022-08-18T14:44:56;5.78;;;2.47;;
28519;SDS011;15732;48.534;20.382;2022-08-18T14:47:23;8.35;;;2.25;;
28519;SDS011;15732;48.534;20.382;2022-08-18T14:49:55;5.05;;;2.08;;
28519;SDS011;15732;48.534;20.382;2022-08-18T14:52:23;4.80;;;1.98;;
28519;SDS011;15732;48.534;20.382;2022-08-18T14:54:50;4.25;;;1.92;;
28519;SDS011;15732;48.534;20.382;2022-08-18T14:57:22;5.38;;;2.13;;
28519;SDS011;15732;48.534;20.382;2022-08-18T14:59:53;5.82;;;1.90;;
28519;SDS011;15732;48.534;20.382;2022-08-18T15:02:21;5.65;;;2.35;;
28519;SDS011;15732;48.534;20.382;2022-08-18T15:04:53;7.55;;;2.75;;
28519;SDS011;15732;48.534;20.382;2022-08-18T15:07:24;8.23;;;2.53;;
28519;SDS011;15732;48.534;20.382;2022-08-18T15:09:52;6.63;;;2.25;;
28519;SDS011;15732;48.534;20.382;2022-08-18T15:12:19;9.52;;;2.20;;
28519;SDS011;15732;48.534;20.382;2022-08-18T15:14:49;3.80;;;1.73;;
28519;SDS011;15732;48.534;20.382;2022-08-18T15:17:17;4.55;;;2.05;;
28519;SDS011;15732;48.534;20.382;2022-08-18T15:19:44;3.20;;;1.65;;
28519;SDS011;15732;48.534;20.382;2022-08-18T15:22:16;6.97;;;2.72;;
28519;SDS011;15732;48.534;20.382;2022-08-18T15:25:02;4.43;;;1.60;;
28519;SDS011;15732;48.534;20.382;2022-08-18T15:27:48;6.85;;;1.80;;
28519;SDS011;15732;48.534;20.382;2022-08-18T15:30:16;5.60;;;2.50;;
28519;SDS011;15732;48.534;20.382;2022-08-18T15:32:43;5.37;;;1.97;;
28519;SDS011;15732;48.534;20.382;2022-08-18T15:35:16;5.63;;;2.33;;
28519;SDS011;15732;48.534;20.382;2022-08-18T15:37:44;3.65;;;1.88;;
28519;SDS011;15732;48.534;20.382;2022-08-18T15:40:17;4.70;;;1.90;;
28519;SDS011;15732;48.534;20.382;2022-08-18T15:42:50;5.13;;;1.90;;
28519;SDS011;15732;48.534;20.382;2022-08-18T15:45:26;3.67;;;1.90;;
28519;SDS011;15732;48.534;20.382;2022-08-18T15:48:00;4.80;;;1.90;;
28519;SDS011;15732;48.534;20.382;2022-08-18T15:50:28;5.90;;;2.40;;
28519;SDS011;15732;48.534;20.382;2022-08-18T15:53:00;7.22;;;2.22;;
28519;SDS011;15732;48.534;20.382;2022-08-18T15:55:29;4.13;;;1.88;;
28519;SDS011;15732;48.534;20.382;2022-08-18T15:57:57;4.50;;;1.85;;
28519;SDS011;15732;48.534;20.382;2022-08-18T16:00:30;4.47;;;1.65;;
28519;SDS011;15732;48.534;20.382;2022-08-18T16:03:02;7.30;;;2.08;;
28519;SDS011;15732;48.534;20.382;2022-08-18T16:05:33;3.75;;;1.80;;
28519;SDS011;15732;48.534;20.382;2022-08-18T16:08:06;4.03;;;1.63;;
28519;SDS011;15732;48.534;20.382;2022-08-18T16:10:35;4.20;;;1.60;;
28519;SDS011;15732;48.534;20.382;2022-08-18T16:13:04;3.25;;;1.60;;
28519;SDS011;15732;48.534;20.382;2022-08-18T16:15:33;3.85;;;1.55;;
28519;SDS011;15732;48.534;20.382;2022-08-18T16:18:03;6.97;;;1.90;;
28519;SDS011;15732;48.534;20.382;2022-08-18T16:20:30;4.72;;;1.65;;
28519;SDS011;15732;48.534;20.382;2022-08-18T16:27:53;5.50;;;2.00;;
28519;SDS011;15732;48.534;20.382;2022-08-18T16:30:21;4.15;;;1.83;;
28519;SDS011;15732;48.534;20.382;2022-08-18T16:32:51;4.47;;;1.70;;
28519;SDS011;15732;48.534;20.382;2022-08-18T16:35:18;5.28;;;1.75;;
28519;SDS011;15732;48.534;20.382;2022-08-18T16:37:46;5.88;;;2.17;;
28519;SDS011;15732;48.534;20.382;2022-08-18T16:40:18;6.85;;;2.63;;
28519;SDS011;15732;48.534;20.382;2022-08-18T16:42:45;4.80;;;2.00;;
28519;SDS011;15732;48.534;20.382;2022-08-18T16:45:13;5.88;;;2.25;;
28519;SDS011;15732;48.534;20.382;2022-08-18T16:47:40;6.67;;;1.80;;
28519;SDS011;15732;48.534;20.382;2022-08-18T16:50:09;3.83;;;1.88;;
28519;SDS011;15732;48.534;20.382;2022-08-18T16:52:38;3.60;;;1.80;;
28519;SDS011;15732;48.534;20.382;2022-08-18T16:55:10;4.85;;;2.15;;
28519;SDS011;15732;48.534;20.382;2022-08-18T16:57:38;4.22;;;2.03;;
28519;SDS011;15732;48.534;20.382;2022-08-18T17:00:26;3.38;;;1.40;;
28519;SDS011;15732;48.534;20.382;2022-08-18T17:03:16;5.65;;;1.85;;
28519;SDS011;15732;48.534;20.382;2022-08-18T17:06:02;13.00;;;2.10;;
28519;SDS011;15732;48.534;20.382;2022-08-18T17:08:29;4.70;;;2.30;;
28519;SDS011;15732;48.534;20.382;2022-08-18T17:11:03;5.90;;;2.13;;
28519;SDS011;15732;48.534;20.382;2022-08-18T17:13:34;7.50;;;1.80;;
28519;SDS011;15732;48.534;20.382;2022-08-18T17:16:07;7.70;;;2.50;;
28519;SDS011;15732;48.534;20.382;2022-08-18T17:18:36;7.03;;;3.00;;
28519;SDS011;15732;48.534;20.382;2022-08-18T17:23:31;3.53;;;1.92;;
28519;SDS011;15732;48.534;20.382;2022-08-18T17:25:59;6.82;;;2.55;;
28519;SDS011;15732;48.534;20.382;2022-08-18T17:28:28;8.98;;;2.47;;
28519;SDS011;15732;48.534;20.382;2022-08-18T17:31:04;8.30;;;2.67;;
28519;SDS011;15732;48.534;20.382;2022-08-18T17:33:32;6.30;;;2.15;;
28519;SDS011;15732;48.534;20.382;2022-08-18T17:36:03;9.23;;;2.15;;
28519;SDS011;15732;48.534;20.382;2022-08-18T17:38:47;5.60;;;2.47;;
28519;SDS011;15732;48.534;20.382;2022-08-18T17:41:19;3.88;;;2.08;;
28519;SDS011;15732;48.534;20.382;2022-08-18T17:43:48;10.02;;;2.25;;
28519;SDS011;15732;48.534;20.382;2022-08-18T17:46:20;6.65;;;2.53;;